sensor_id;sensor_type;location;lat;lon;timestamp;P1;durP1;ratioP1;P2;durP2;ratioP2
11263;SDS011;5689;48.798;9.070;2024-03-17T00:00:20;0.50;;;0.50;;
11263;SDS011;5689;48.798;9.070;2024-03-17T00:02:47;0.47;;;0.47;;
11263;SDS011;5689;48.798;9.070;2024-03-17T00:05:14;0.50;;;0.50;;
11263;SDS011;5689;48.798;9.070;2024-03-17T00:07:42;0.40;;;0.40;;
11263;SDS011;5689;48.798;9.070;2024-03-17T00:10:08;0.40;;;0.40;;
11263;SDS011;5689;48.798;9.070;2024-03-17T00:12:36;0.60;;;0.60;;
11263;SDS011;5689;48.798;9.070;2024-03-17T00:15:02;0.40;;;0.40;;
11263;SDS011;5689;48.798;9.070;2024-03-17T00:17:30;0.30;;;0.30;;
11263;SDS011;5689;48.798;9.070;2024-03-17T00:19:56;0.30;;;0.30;;
11263;SDS011;5689;48.798;9.070;2024-03-17T00:22:23;0.40;;;0.40;;
11263;SDS011;5689;48.798;9.070;2024-03-17T00:24:51;0.37;;;0.37;;
11263;SDS011;5689;48.798;9.070;2024-03-17T00:27:17;0.30;;;0.30;;
11263;SDS011;5689;48.798;9.070;2024-03-17T00:29:44;0.23;;;0.23;;
11263;SDS011;5689;48.798;9.070;2024-03-17T00:32:11;0.20;;;0.20;;
11263;SDS011;5689;48.798;9.070;2024-03-17T00:34:37;0.30;;;0.30;;
11263;SDS011;5689;48.798;9.070;2024-03-17T00:37:04;0.37;;;0.37;;
11263;SDS011;5689;48.798;9.070;2024-03-17T00:39:30;0.30;;;0.30;;
11263;SDS011;5689;48.798;9.070;2024-03-17T00:41:59;0.37;;;0.37;;
11263;SDS011;5689;48.798;9.070;2024-03-17T00:44:25;0.20;;;0.20;;
11263;SDS011;5689;48.798;9.070;2024-03-17T00:46:52;0.20;;;0.20;;
11263;SDS011;5689;48.798;9.070;2024-03-17T00:49:18;0.30;;;0.30;;
11263;SDS011;5689;48.798;9.070;2024-03-17T00:51:45;0.30;;;0.30;;
11263;SDS011;5689;48.798;9.070;2024-03-17T00:54:13;0.30;;;0.30;;
11263;SDS011;5689;48.798;9.070;2024-03-17T00:56:40;0.30;;;0.30;;
11263;SDS011;5689;48.798;9.070;2024-03-17T00:59:07;0.30;;;0.30;;
11263;SDS011;5689;48.798;9.070;2024-03-17T01:01:34;0.40;;;0.40;;
11263;SDS011;5689;48.798;9.070;2024-03-17T01:04:00;0.30;;;0.30;;
11263;SDS011;5689;48.798;9.070;2024-03-17T01:06:27;0.30;;;0.30;;
11263;SDS011;5689;48.798;9.070;2024-03-17T01:08:57;0.33;;;0.33;;
11263;SDS011;5689;48.798;9.070;2024-03-17T01:11:24;0.33;;;0.33;;
11263;SDS011;5689;48.798;9.070;2024-03-17T01:13:50;0.37;;;0.37;;
11263;SDS011;5689;48.798;9.070;2024-03-17T01:16:19;0.30;;;0.30;;
11263;SDS011;5689;48.798;9.070;2024-03-17T01:18:44;0.30;;;0.30;;
11263;SDS011;5689;48.798;9.070;2024-03-17T01:21:11;0.30;;;0.30;;
11263;SDS011;5689;48.798;9.070;2024-03-17T01:23:37;0.30;;;0.30;;
11263;SDS011;5689;48.798;9.070;2024-03-17T01:26:04;0.40;;;0.40;;
11263;SDS011;5689;48.798;9.070;2024-03-17T01:28:30;0.40;;;0.40;;
11263;SDS011;5689;48.798;9.070;2024-03-17T01:30:57;0.40;;;0.40;;
11263;SDS011;5689;48.798;9.070;2024-03-17T01:33:25;0.40;;;0.40;;
11263;SDS011;5689;48.798;9.070;2024-03-17T01:35:52;0.50;;;0.50;;
11263;SDS011;5689;48.798;9.070;2024-03-17T01:38:18;0.40;;;0.40;;
11263;SDS011;5689;48.798;9.070;2024-03-17T01:40:44;0.30;;;0.30;;
11263;SDS011;5689;48.798;9.070;2024-03-17T01:43:12;0.30;;;0.30;;
11263;SDS011;5689;48.798;9.070;2024-03-17T01:45:38;0.30;;;0.30;;
11263;SDS011;5689;48.798;9.070;2024-03-17T01:48:08;0.30;;;0.30;;
11263;SDS011;5689;48.798;9.070;2024-03-17T01:50:40;0.30;;;0.30;;
11263;SDS011;5689;48.798;9.070;2024-03-17T01:53:08;0.30;;;0.30;;
11263;SDS011;5689;48.798;9.070;2024-03-17T01:55:36;0.30;;;0.30;;
11263;SDS011;5689;48.798;9.070;2024-03-17T01:58:05;0.30;;;0.30;;
11263;SDS011;5689;48.798;9.070;2024-03-17T02:00:32;0.30;;;0.30;;
11263;SDS011;5689;48.798;9.070;2024-03-17T02:03:01;0.30;;;0.30;;
11263;SDS011;5689;48.798;9.070;2024-03-17T02:05:28;0.30;;;0.30;;
11263;SDS011;5689;48.798;9.070;2024-03-17T02:07:56;0.40;;;0.40;;
11263;SDS011;5689;48.798;9.070;2024-03-17T02:10:22;0.23;;;0.23;;
11263;SDS011;5689;48.798;9.070;2024-03-17T02:12:50;0.40;;;0.40;;
11263;SDS011;5689;48.798;9.070;2024-03-17T02:15:17;0.30;;;0.30;;
11263;SDS011;5689;48.798;9.070;2024-03-17T02:17:44;0.30;;;0.30;;
11263;SDS011;5689;48.798;9.070;2024-03-17T02:20:10;0.20;;;0.20;;
11263;SDS011;5689;48.798;9.070;2024-03-17T02:22:40;0.30;;;0.30;;
11263;SDS011;5689;48.798;9.070;2024-03-17T02:25:07;0.20;;;0.20;;
11263;SDS011;5689;48.798;9.070;2024-03-17T02:27:34;0.30;;;0.30;;
11263;SDS011;5689;48.798;9.070;2024-03-17T02:30:00;0.20;;;0.20;;
11263;SDS011;5689;48.798;9.070;2024-03-17T02:32:29;0.30;;;0.30;;
11263;SDS011;5689;48.798;9.070;2024-03-17T02:34:55;0.30;;;0.30;;
11263;SDS011;5689;48.798;9.070;2024-03-17T02:37:23;0.30;;;0.30;;
11263;SDS011;5689;48.798;9.070;2024-03-17T02:39:50;0.20;;;0.20;;
11263;SDS011;5689;48.798;9.070;2024-03-17T02:42:18;0.30;;;0.30;;
11263;SDS011;5689;48.798;9.070;2024-03-17T02:44:45;0.30;;;0.30;;
11263;SDS011;5689;48.798;9.070;2024-03-17T02:47:11;0.60;;;0.60;;
11263;SDS011;5689;48.798;9.070;2024-03-17T02:49:40;0.40;;;0.40;;
11263;SDS011;5689;48.798;9.070;2024-03-17T02:52:09;0.40;;;0.40;;
11263;SDS011;5689;48.798;9.070;2024-03-17T02:54:37;0.43;;;0.43;;
11263;SDS011;5689;48.798;9.070;2024-03-17T02:57:06;0.50;;;0.50;;
11263;SDS011;5689;48.798;9.070;2024-03-17T02:59:33;0.50;;;0.50;;
11263;SDS011;5689;48.798;9.070;2024-03-17T03:02:00;0.50;;;0.50;;
11263;SDS011;5689;48.798;9.070;2024-03-17T03:04:27;0.50;;;0.50;;
11263;SDS011;5689;48.798;9.070;2024-03-17T03:06:54;0.50;;;0.50;;
11263;SDS011;5689;48.798;9.070;2024-03-17T03:09:21;0.50;;;0.50;;
11263;SDS011;5689;48.798;9.070;2024-03-17T03:11:56;0.40;;;0.40;;
11263;SDS011;5689;48.798;9.070;2024-03-17T03:14:24;0.50;;;0.50;;
11263;SDS011;5689;48.798;9.070;2024-03-17T03:16:51;0.50;;;0.50;;
11263;SDS011;5689;48.798;9.070;2024-03-17T03:19:18;0.60;;;0.60;;
11263;SDS011;5689;48.798;9.070;2024-03-17T03:21:45;0.53;;;0.53;;
11263;SDS011;5689;48.798;9.070;2024-03-17T03:24:13;0.60;;;0.60;;
11263;SDS011;5689;48.798;9.070;2024-03-17T03:26:40;0.60;;;0.60;;
11263;SDS011;5689;48.798;9.070;2024-03-17T03:29:07;0.60;;;0.60;;
11263;SDS011;5689;48.798;9.070;2024-03-17T03:31:37;0.70;;;0.70;;
11263;SDS011;5689;48.798;9.070;2024-03-17T03:34:04;0.50;;;0.50;;
11263;SDS011;5689;48.798;9.070;2024-03-17T03:36:33;0.47;;;0.47;;
11263;SDS011;5689;48.798;9.070;2024-03-17T03:39:01;0.50;;;0.50;;
11263;SDS011;5689;48.798;9.070;2024-03-17T03:41:30;0.60;;;0.60;;
11263;SDS011;5689;48.798;9.070;2024-03-17T03:43:57;0.70;;;0.70;;
11263;SDS011;5689;48.798;9.070;2024-03-17T03:46:24;0.70;;;0.70;;
11263;SDS011;5689;48.798;9.070;2024-03-17T03:48:53;0.60;;;0.60;;
11263;SDS011;5689;48.798;9.070;2024-03-17T03:51:20;0.50;;;0.50;;
11263;SDS011;5689;48.798;9.070;2024-03-17T03:53:47;0.70;;;0.70;;
11263;SDS011;5689;48.798;9.070;2024-03-17T03:56:14;0.70;;;0.70;;
11263;SDS011;5689;48.798;9.070;2024-03-17T03:58:41;0.60;;;0.60;;
11263;SDS011;5689;48.798;9.070;2024-03-17T04:01:11;0.60;;;0.60;;
11263;SDS011;5689;48.798;9.070;2024-03-17T04:03:41;0.60;;;0.60;;
11263;SDS011;5689;48.798;9.070;2024-03-17T04:06:10;0.60;;;0.60;;
11263;SDS011;5689;48.798;9.070;2024-03-17T04:08:38;0.70;;;0.70;;
11263;SDS011;5689;48.798;9.070;2024-03-17T04:11:06;0.60;;;0.60;;
11263;SDS011;5689;48.798;9.070;2024-03-17T04:13:33;0.70;;;0.70;;
11263;SDS011;5689;48.798;9.070;2024-03-17T04:16:03;0.60;;;0.60;;
11263;SDS011;5689;48.798;9.070;2024-03-17T04:18:31;0.60;;;0.60;;
11263;SDS011;5689;48.798;9.070;2024-03-17T04:21:01;0.50;;;0.50;;
11263;SDS011;5689;48.798;9.070;2024-03-17T04:23:31;0.50;;;0.50;;
11263;SDS011;5689;48.798;9.070;2024-03-17T04:25:58;0.60;;;0.60;;
11263;SDS011;5689;48.798;9.070;2024-03-17T04:28:26;0.50;;;0.50;;
11263;SDS011;5689;48.798;9.070;2024-03-17T04:30:53;0.50;;;0.50;;
11263;SDS011;5689;48.798;9.070;2024-03-17T04:33:29;0.57;;;0.57;;
11263;SDS011;5689;48.798;9.070;2024-03-17T04:35:57;0.60;;;0.60;;
11263;SDS011;5689;48.798;9.070;2024-03-17T04:38:24;0.60;;;0.60;;
11263;SDS011;5689;48.798;9.070;2024-03-17T04:40:52;0.60;;;0.60;;
11263;SDS011;5689;48.798;9.070;2024-03-17T04:43:24;0.60;;;0.60;;
11263;SDS011;5689;48.798;9.070;2024-03-17T04:45:58;0.60;;;0.60;;
11263;SDS011;5689;48.798;9.070;2024-03-17T04:48:27;0.50;;;0.50;;
11263;SDS011;5689;48.798;9.070;2024-03-17T04:50:53;0.60;;;0.60;;
11263;SDS011;5689;48.798;9.070;2024-03-17T04:53:20;0.70;;;0.70;;
11263;SDS011;5689;48.798;9.070;2024-03-17T04:55:47;0.60;;;0.60;;
11263;SDS011;5689;48.798;9.070;2024-03-17T04:58:16;0.60;;;0.60;;
11263;SDS011;5689;48.798;9.070;2024-03-17T05:00:42;0.60;;;0.60;;
11263;SDS011;5689;48.798;9.070;2024-03-17T05:03:09;0.60;;;0.60;;
11263;SDS011;5689;48.798;9.070;2024-03-17T05:05:36;0.63;;;0.63;;
11263;SDS011;5689;48.798;9.070;2024-03-17T05:08:03;0.50;;;0.50;;
11263;SDS011;5689;48.798;9.070;2024-03-17T05:10:31;0.60;;;0.60;;
11263;SDS011;5689;48.798;9.070;2024-03-17T05:12:57;0.70;;;0.70;;
11263;SDS011;5689;48.798;9.070;2024-03-17T05:15:26;0.60;;;0.60;;
11263;SDS011;5689;48.798;9.070;2024-03-17T05:17:53;0.60;;;0.60;;
11263;SDS011;5689;48.798;9.070;2024-03-17T05:20:21;0.60;;;0.60;;
11263;SDS011;5689;48.798;9.070;2024-03-17T05:22:48;0.60;;;0.60;;
11263;SDS011;5689;48.798;9.070;2024-03-17T05:25:15;0.60;;;0.60;;
11263;SDS011;5689;48.798;9.070;2024-03-17T05:27:42;0.60;;;0.60;;
11263;SDS011;5689;48.798;9.070;2024-03-17T05:30:10;0.60;;;0.60;;
11263;SDS011;5689;48.798;9.070;2024-03-17T05:32:38;0.67;;;0.67;;
11263;SDS011;5689;48.798;9.070;2024-03-17T05:35:06;0.60;;;0.60;;
11263;SDS011;5689;48.798;9.070;2024-03-17T05:37:34;0.70;;;0.70;;
11263;SDS011;5689;48.798;9.070;2024-03-17T05:40:01;0.70;;;0.70;;
11263;SDS011;5689;48.798;9.070;2024-03-17T05:42:29;0.70;;;0.70;;
11263;SDS011;5689;48.798;9.070;2024-03-17T05:44:57;0.60;;;0.60;;
11263;SDS011;5689;48.798;9.070;2024-03-17T05:47:24;0.70;;;0.70;;
11263;SDS011;5689;48.798;9.070;2024-03-17T05:49:52;0.63;;;0.63;;
11263;SDS011;5689;48.798;9.070;2024-03-17T05:52:21;0.60;;;0.60;;
11263;SDS011;5689;48.798;9.070;2024-03-17T05:54:48;0.60;;;0.60;;
11263;SDS011;5689;48.798;9.070;2024-03-17T05:57:15;0.60;;;0.60;;
11263;SDS011;5689;48.798;9.070;2024-03-17T05:59:41;0.50;;;0.50;;
11263;SDS011;5689;48.798;9.070;2024-03-17T06:02:09;0.50;;;0.50;;
11263;SDS011;5689;48.798;9.070;2024-03-17T06:04:36;0.50;;;0.50;;
11263;SDS011;5689;48.798;9.070;2024-03-17T06:07:08;0.70;;;0.70;;
11263;SDS011;5689;48.798;9.070;2024-03-17T06:09:35;0.60;;;0.60;;
11263;SDS011;5689;48.798;9.070;2024-03-17T06:12:02;0.57;;;0.57;;
11263;SDS011;5689;48.798;9.070;2024-03-17T06:14:29;0.60;;;0.60;;
11263;SDS011;5689;48.798;9.070;2024-03-17T06:16:56;0.60;;;0.60;;
11263;SDS011;5689;48.798;9.070;2024-03-17T06:19:23;0.50;;;0.50;;
11263;SDS011;5689;48.798;9.070;2024-03-17T06:21:50;0.60;;;0.60;;
11263;SDS011;5689;48.798;9.070;2024-03-17T06:24:18;0.50;;;0.50;;
11263;SDS011;5689;48.798;9.070;2024-03-17T06:26:45;0.67;;;0.67;;
11263;SDS011;5689;48.798;9.070;2024-03-17T06:29:14;0.57;;;0.57;;
11263;SDS011;5689;48.798;9.070;2024-03-17T06:31:41;0.50;;;0.50;;
11263;SDS011;5689;48.798;9.070;2024-03-17T06:34:08;0.50;;;0.50;;
11263;SDS011;5689;48.798;9.070;2024-03-17T06:36:34;0.50;;;0.50;;
11263;SDS011;5689;48.798;9.070;2024-03-17T06:39:01;0.60;;;0.60;;
11263;SDS011;5689;48.798;9.070;2024-03-17T06:41:30;0.50;;;0.50;;
11263;SDS011;5689;48.798;9.070;2024-03-17T06:43:57;0.40;;;0.40;;
11263;SDS011;5689;48.798;9.070;2024-03-17T06:46:24;0.53;;;0.53;;
11263;SDS011;5689;48.798;9.070;2024-03-17T06:48:51;0.50;;;0.50;;
11263;SDS011;5689;48.798;9.070;2024-03-17T06:51:23;0.40;;;0.40;;
11263;SDS011;5689;48.798;9.070;2024-03-17T06:53:50;0.40;;;0.40;;
11263;SDS011;5689;48.798;9.070;2024-03-17T06:56:17;0.30;;;0.30;;
11263;SDS011;5689;48.798;9.070;2024-03-17T06:58:45;0.40;;;0.40;;
11263;SDS011;5689;48.798;9.070;2024-03-17T07:01:12;0.50;;;0.50;;
11263;SDS011;5689;48.798;9.070;2024-03-17T07:03:39;0.50;;;0.50;;
11263;SDS011;5689;48.798;9.070;2024-03-17T07:06:06;0.40;;;0.40;;
11263;SDS011;5689;48.798;9.070;2024-03-17T07:08:33;0.40;;;0.40;;
11263;SDS011;5689;48.798;9.070;2024-03-17T07:11:01;0.38;;;0.38;;
11263;SDS011;5689;48.798;9.070;2024-03-17T07:13:29;0.30;;;0.30;;
11263;SDS011;5689;48.798;9.070;2024-03-17T07:15:59;0.20;;;0.20;;
11263;SDS011;5689;48.798;9.070;2024-03-17T07:18:27;0.28;;;0.28;;
11263;SDS011;5689;48.798;9.070;2024-03-17T07:20:56;0.30;;;0.30;;
11263;SDS011;5689;48.798;9.070;2024-03-17T07:23:23;0.20;;;0.20;;
11263;SDS011;5689;48.798;9.070;2024-03-17T07:25:54;0.30;;;0.30;;
11263;SDS011;5689;48.798;9.070;2024-03-17T07:28:21;0.20;;;0.20;;
11263;SDS011;5689;48.798;9.070;2024-03-17T07:30:49;0.30;;;0.30;;
11263;SDS011;5689;48.798;9.070;2024-03-17T07:33:18;0.30;;;0.30;;
11263;SDS011;5689;48.798;9.070;2024-03-17T07:35:49;0.20;;;0.20;;
11263;SDS011;5689;48.798;9.070;2024-03-17T07:38:18;0.20;;;0.20;;
11263;SDS011;5689;48.798;9.070;2024-03-17T07:40:45;0.20;;;0.20;;
11263;SDS011;5689;48.798;9.070;2024-03-17T07:43:22;0.20;;;0.20;;
11263;SDS011;5689;48.798;9.070;2024-03-17T07:45:56;0.10;;;0.10;;
11263;SDS011;5689;48.798;9.070;2024-03-17T07:48:25;0.13;;;0.13;;
11263;SDS011;5689;48.798;9.070;2024-03-17T07:50:56;0.10;;;0.10;;
11263;SDS011;5689;48.798;9.070;2024-03-17T07:53:23;0.10;;;0.10;;
11263;SDS011;5689;48.798;9.070;2024-03-17T07:55:58;0.10;;;0.10;;
11263;SDS011;5689;48.798;9.070;2024-03-17T07:58:27;0.10;;;0.10;;
11263;SDS011;5689;48.798;9.070;2024-03-17T08:00:56;0.20;;;0.20;;
11263;SDS011;5689;48.798;9.070;2024-03-17T08:03:27;0.20;;;0.20;;
11263;SDS011;5689;48.798;9.070;2024-03-17T08:05:54;0.20;;;0.20;;
11263;SDS011;5689;48.798;9.070;2024-03-17T08:08:21;0.30;;;0.30;;
11263;SDS011;5689;48.798;9.070;2024-03-17T08:10:48;0.20;;;0.20;;
11263;SDS011;5689;48.798;9.070;2024-03-17T08:13:16;0.10;;;0.10;;
11263;SDS011;5689;48.798;9.070;2024-03-17T08:15:43;0.10;;;0.10;;
11263;SDS011;5689;48.798;9.070;2024-03-17T08:18:11;0.10;;;0.10;;
11263;SDS011;5689;48.798;9.070;2024-03-17T08:20:39;0.20;;;0.20;;
11263;SDS011;5689;48.798;9.070;2024-03-17T08:23:08;0.10;;;0.10;;
11263;SDS011;5689;48.798;9.070;2024-03-17T08:25:36;0.13;;;0.13;;
11263;SDS011;5689;48.798;9.070;2024-03-17T08:28:03;0.22;;;0.22;;
11263;SDS011;5689;48.798;9.070;2024-03-17T08:30:30;0.28;;;0.28;;
11263;SDS011;5689;48.798;9.070;2024-03-17T08:32:57;0.30;;;0.30;;
11263;SDS011;5689;48.798;9.070;2024-03-17T08:35:25;0.30;;;0.30;;
11263;SDS011;5689;48.798;9.070;2024-03-17T08:37:53;0.30;;;0.30;;
11263;SDS011;5689;48.798;9.070;2024-03-17T08:40:20;0.20;;;0.20;;
11263;SDS011;5689;48.798;9.070;2024-03-17T08:42:47;0.10;;;0.10;;
11263;SDS011;5689;48.798;9.070;2024-03-17T08:45:15;0.10;;;0.10;;
11263;SDS011;5689;48.798;9.070;2024-03-17T08:47:42;0.10;;;0.10;;
11263;SDS011;5689;48.798;9.070;2024-03-17T08:50:09;0.20;;;0.20;;
11263;SDS011;5689;48.798;9.070;2024-03-17T08:52:37;0.10;;;0.10;;
11263;SDS011;5689;48.798;9.070;2024-03-17T08:55:06;0.20;;;0.20;;
11263;SDS011;5689;48.798;9.070;2024-03-17T08:57:39;0.10;;;0.10;;
11263;SDS011;5689;48.798;9.070;2024-03-17T09:00:07;0.20;;;0.20;;
11263;SDS011;5689;48.798;9.070;2024-03-17T09:02:35;0.20;;;0.20;;
11263;SDS011;5689;48.798;9.070;2024-03-17T09:05:02;0.20;;;0.20;;
11263;SDS011;5689;48.798;9.070;2024-03-17T09:07:30;0.20;;;0.20;;
11263;SDS011;5689;48.798;9.070;2024-03-17T09:09:57;0.25;;;0.20;;
11263;SDS011;5689;48.798;9.070;2024-03-17T09:12:26;0.10;;;0.10;;
11263;SDS011;5689;48.798;9.070;2024-03-17T09:14:53;0.20;;;0.20;;
11263;SDS011;5689;48.798;9.070;2024-03-17T09:17:20;0.15;;;0.15;;
11263;SDS011;5689;48.798;9.070;2024-03-17T09:19:47;0.10;;;0.10;;
11263;SDS011;5689;48.798;9.070;2024-03-17T09:22:14;0.20;;;0.20;;
11263;SDS011;5689;48.798;9.070;2024-03-17T09:24:40;0.10;;;0.10;;
11263;SDS011;5689;48.798;9.070;2024-03-17T09:27:07;0.10;;;0.10;;
11263;SDS011;5689;48.798;9.070;2024-03-17T09:29:36;0.10;;;0.10;;
11263;SDS011;5689;48.798;9.070;2024-03-17T09:32:03;0.10;;;0.10;;
11263;SDS011;5689;48.798;9.070;2024-03-17T09:34:30;0.10;;;0.10;;
11263;SDS011;5689;48.798;9.070;2024-03-17T09:36:57;0.10;;;0.10;;
11263;SDS011;5689;48.798;9.070;2024-03-17T09:39:24;0.15;;;0.15;;
11263;SDS011;5689;48.798;9.070;2024-03-17T09:41:51;0.10;;;0.10;;
11263;SDS011;5689;48.798;9.070;2024-03-17T09:44:18;0.15;;;0.15;;
11263;SDS011;5689;48.798;9.070;2024-03-17T09:46:47;0.10;;;0.10;;
11263;SDS011;5689;48.798;9.070;2024-03-17T09:49:14;0.10;;;0.10;;
11263;SDS011;5689;48.798;9.070;2024-03-17T09:51:42;0.10;;;0.10;;
11263;SDS011;5689;48.798;9.070;2024-03-17T09:54:16;0.20;;;0.20;;
11263;SDS011;5689;48.798;9.070;2024-03-17T09:56:45;0.20;;;0.20;;
11263;SDS011;5689;48.798;9.070;2024-03-17T09:59:12;0.20;;;0.20;;
11263;SDS011;5689;48.798;9.070;2024-03-17T10:01:39;0.10;;;0.10;;
11263;SDS011;5689;48.798;9.070;2024-03-17T10:04:09;0.17;;;0.17;;
11263;SDS011;5689;48.798;9.070;2024-03-17T10:06:44;0.10;;;0.10;;
11263;SDS011;5689;48.798;9.070;2024-03-17T10:09:13;0.10;;;0.10;;
11263;SDS011;5689;48.798;9.070;2024-03-17T10:11:46;0.13;;;0.13;;
11263;SDS011;5689;48.798;9.070;2024-03-17T10:14:16;0.10;;;0.10;;
11263;SDS011;5689;48.798;9.070;2024-03-17T10:16:44;0.15;;;0.15;;
11263;SDS011;5689;48.798;9.070;2024-03-17T10:19:12;0.10;;;0.10;;
11263;SDS011;5689;48.798;9.070;2024-03-17T10:21:41;0.10;;;0.10;;
11263;SDS011;5689;48.798;9.070;2024-03-17T10:24:09;0.17;;;0.17;;
11263;SDS011;5689;48.798;9.070;2024-03-17T10:26:46;0.10;;;0.10;;
11263;SDS011;5689;48.798;9.070;2024-03-17T10:29:19;0.20;;;0.20;;
11263;SDS011;5689;48.798;9.070;2024-03-17T10:31:50;0.17;;;0.17;;
11263;SDS011;5689;48.798;9.070;2024-03-17T10:34:19;0.20;;;0.20;;
11263;SDS011;5689;48.798;9.070;2024-03-17T10:36:50;0.10;;;0.10;;
11263;SDS011;5689;48.798;9.070;2024-03-17T10:39:24;0.20;;;0.20;;
11263;SDS011;5689;48.798;9.070;2024-03-17T10:41:56;0.17;;;0.17;;
11263;SDS011;5689;48.798;9.070;2024-03-17T10:44:25;0.10;;;0.10;;
11263;SDS011;5689;48.798;9.070;2024-03-17T10:46:52;0.20;;;0.20;;
11263;SDS011;5689;48.798;9.070;2024-03-17T10:49:22;0.20;;;0.20;;
11263;SDS011;5689;48.798;9.070;2024-03-17T10:51:54;0.10;;;0.10;;
11263;SDS011;5689;48.798;9.070;2024-03-17T10:54:24;0.10;;;0.10;;
11263;SDS011;5689;48.798;9.070;2024-03-17T10:56:54;0.10;;;0.10;;
11263;SDS011;5689;48.798;9.070;2024-03-17T10:59:23;0.10;;;0.10;;
11263;SDS011;5689;48.798;9.070;2024-03-17T11:01:58;0.10;;;0.10;;
11263;SDS011;5689;48.798;9.070;2024-03-17T11:04:29;0.20;;;0.20;;
11263;SDS011;5689;48.798;9.070;2024-03-17T11:06:56;0.10;;;0.10;;
11263;SDS011;5689;48.798;9.070;2024-03-17T11:09:26;0.10;;;0.10;;
11263;SDS011;5689;48.798;9.070;2024-03-17T11:11:53;0.10;;;0.10;;
11263;SDS011;5689;48.798;9.070;2024-03-17T11:14:20;0.10;;;0.10;;
11263;SDS011;5689;48.798;9.070;2024-03-17T11:16:48;0.10;;;0.10;;
11263;SDS011;5689;48.798;9.070;2024-03-17T11:19:16;0.10;;;0.10;;
11263;SDS011;5689;48.798;9.070;2024-03-17T11:21:45;0.10;;;0.10;;
11263;SDS011;5689;48.798;9.070;2024-03-17T11:24:19;0.10;;;0.10;;
11263;SDS011;5689;48.798;9.070;2024-03-17T11:26:47;0.10;;;0.10;;
11263;SDS011;5689;48.798;9.070;2024-03-17T11:29:27;0.10;;;0.10;;
11263;SDS011;5689;48.798;9.070;2024-03-17T11:31:55;0.10;;;0.10;;
11263;SDS011;5689;48.798;9.070;2024-03-17T11:34:26;0.10;;;0.10;;
11263;SDS011;5689;48.798;9.070;2024-03-17T11:36:58;0.10;;;0.10;;
11263;SDS011;5689;48.798;9.070;2024-03-17T11:42:24;0.10;;;0.10;;
11263;SDS011;5689;48.798;9.070;2024-03-17T11:44:55;0.10;;;0.10;;
11263;SDS011;5689;48.798;9.070;2024-03-17T11:47:23;0.10;;;0.10;;
11263;SDS011;5689;48.798;9.070;2024-03-17T11:50:06;0.10;;;0.10;;
11263;SDS011;5689;48.798;9.070;2024-03-17T11:52:36;0.15;;;0.15;;
11263;SDS011;5689;48.798;9.070;2024-03-17T11:55:06;0.10;;;0.10;;
11263;SDS011;5689;48.798;9.070;2024-03-17T11:57:41;0.20;;;0.20;;
11263;SDS011;5689;48.798;9.070;2024-03-17T12:00:18;0.10;;;0.10;;
11263;SDS011;5689;48.798;9.070;2024-03-17T12:02:47;0.10;;;0.10;;
11263;SDS011;5689;48.798;9.070;2024-03-17T12:05:15;0.10;;;0.10;;
11263;SDS011;5689;48.798;9.070;2024-03-17T12:07:43;0.10;;;0.10;;
11263;SDS011;5689;48.798;9.070;2024-03-17T12:10:10;0.10;;;0.10;;
11263;SDS011;5689;48.798;9.070;2024-03-17T12:12:38;0.10;;;0.10;;
11263;SDS011;5689;48.798;9.070;2024-03-17T12:15:15;0.10;;;0.10;;
11263;SDS011;5689;48.798;9.070;2024-03-17T12:17:43;0.10;;;0.10;;
11263;SDS011;5689;48.798;9.070;2024-03-17T12:20:16;0.10;;;0.10;;
11263;SDS011;5689;48.798;9.070;2024-03-17T12:22:44;0.00;;;0.00;;
11263;SDS011;5689;48.798;9.070;2024-03-17T12:25:15;0.10;;;0.10;;
11263;SDS011;5689;48.798;9.070;2024-03-17T12:27:43;0.10;;;0.10;;
11263;SDS011;5689;48.798;9.070;2024-03-17T12:30:12;0.10;;;0.10;;
11263;SDS011;5689;48.798;9.070;2024-03-17T12:32:38;0.10;;;0.10;;
11263;SDS011;5689;48.798;9.070;2024-03-17T12:35:10;0.10;;;0.10;;
11263;SDS011;5689;48.798;9.070;2024-03-17T12:37:39;0.10;;;0.10;;
11263;SDS011;5689;48.798;9.070;2024-03-17T12:40:08;0.05;;;0.05;;
11263;SDS011;5689;48.798;9.070;2024-03-17T12:42:47;0.10;;;0.10;;
11263;SDS011;5689;48.798;9.070;2024-03-17T12:45:18;0.10;;;0.10;;
11263;SDS011;5689;48.798;9.070;2024-03-17T12:47:46;0.10;;;0.10;;
11263;SDS011;5689;48.798;9.070;2024-03-17T12:50:14;0.10;;;0.10;;
11263;SDS011;5689;48.798;9.070;2024-03-17T12:52:40;0.10;;;0.10;;
11263;SDS011;5689;48.798;9.070;2024-03-17T12:55:19;0.10;;;0.10;;
11263;SDS011;5689;48.798;9.070;2024-03-17T12:58:07;0.10;;;0.10;;
11263;SDS011;5689;48.798;9.070;2024-03-17T13:00:56;0.10;;;0.10;;
11263;SDS011;5689;48.798;9.070;2024-03-17T13:03:25;0.10;;;0.10;;
11263;SDS011;5689;48.798;9.070;2024-03-17T13:05:53;0.10;;;0.10;;
11263;SDS011;5689;48.798;9.070;2024-03-17T13:08:20;0.10;;;0.10;;
11263;SDS011;5689;48.798;9.070;2024-03-17T13:10:48;0.10;;;0.10;;
11263;SDS011;5689;48.798;9.070;2024-03-17T13:13:15;0.10;;;0.10;;
11263;SDS011;5689;48.798;9.070;2024-03-17T13:15:43;0.10;;;0.10;;
11263;SDS011;5689;48.798;9.070;2024-03-17T13:18:15;0.10;;;0.10;;
11263;SDS011;5689;48.798;9.070;2024-03-17T13:20:44;0.10;;;0.10;;
11263;SDS011;5689;48.798;9.070;2024-03-17T13:23:11;0.10;;;0.10;;
11263;SDS011;5689;48.798;9.070;2024-03-17T13:25:38;0.10;;;0.10;;
11263;SDS011;5689;48.798;9.070;2024-03-17T13:28:09;0.10;;;0.10;;
11263;SDS011;5689;48.798;9.070;2024-03-17T13:30:37;0.10;;;0.10;;
11263;SDS011;5689;48.798;9.070;2024-03-17T13:33:05;0.10;;;0.10;;
11263;SDS011;5689;48.798;9.070;2024-03-17T13:35:35;0.10;;;0.10;;
11263;SDS011;5689;48.798;9.070;2024-03-17T13:38:04;0.10;;;0.10;;
11263;SDS011;5689;48.798;9.070;2024-03-17T13:40:33;0.10;;;0.10;;
11263;SDS011;5689;48.798;9.070;2024-03-17T13:43:00;0.10;;;0.10;;
11263;SDS011;5689;48.798;9.070;2024-03-17T13:45:30;0.10;;;0.10;;
11263;SDS011;5689;48.798;9.070;2024-03-17T13:48:04;0.10;;;0.10;;
11263;SDS011;5689;48.798;9.070;2024-03-17T13:50:35;0.10;;;0.10;;
11263;SDS011;5689;48.798;9.070;2024-03-17T13:53:03;0.10;;;0.10;;
11263;SDS011;5689;48.798;9.070;2024-03-17T13:55:30;0.10;;;0.10;;
11263;SDS011;5689;48.798;9.070;2024-03-17T13:57:58;0.05;;;0.05;;
11263;SDS011;5689;48.798;9.070;2024-03-17T14:00:27;0.10;;;0.10;;
11263;SDS011;5689;48.798;9.070;2024-03-17T14:02:59;0.10;;;0.10;;
11263;SDS011;5689;48.798;9.070;2024-03-17T14:05:26;0.00;;;0.00;;
11263;SDS011;5689;48.798;9.070;2024-03-17T14:07:53;0.10;;;0.10;;
11263;SDS011;5689;48.798;9.070;2024-03-17T14:10:22;0.10;;;0.10;;
11263;SDS011;5689;48.798;9.070;2024-03-17T14:12:51;0.10;;;0.10;;
11263;SDS011;5689;48.798;9.070;2024-03-17T14:15:19;0.10;;;0.10;;
11263;SDS011;5689;48.798;9.070;2024-03-17T14:17:48;0.10;;;0.10;;
11263;SDS011;5689;48.798;9.070;2024-03-17T14:20:16;0.10;;;0.10;;
11263;SDS011;5689;48.798;9.070;2024-03-17T14:22:44;0.10;;;0.10;;
11263;SDS011;5689;48.798;9.070;2024-03-17T14:25:14;0.10;;;0.10;;
11263;SDS011;5689;48.798;9.070;2024-03-17T14:27:42;0.10;;;0.10;;
11263;SDS011;5689;48.798;9.070;2024-03-17T14:30:10;0.10;;;0.10;;
11263;SDS011;5689;48.798;9.070;2024-03-17T14:32:40;0.10;;;0.10;;
11263;SDS011;5689;48.798;9.070;2024-03-17T14:35:09;0.10;;;0.10;;
11263;SDS011;5689;48.798;9.070;2024-03-17T14:37:40;0.00;;;0.00;;
11263;SDS011;5689;48.798;9.070;2024-03-17T14:40:12;0.10;;;0.10;;
11263;SDS011;5689;48.798;9.070;2024-03-17T14:42:45;0.10;;;0.10;;
11263;SDS011;5689;48.798;9.070;2024-03-17T14:45:12;0.10;;;0.10;;
11263;SDS011;5689;48.798;9.070;2024-03-17T14:47:40;0.10;;;0.10;;
11263;SDS011;5689;48.798;9.070;2024-03-17T14:50:07;0.10;;;0.10;;
11263;SDS011;5689;48.798;9.070;2024-03-17T14:52:36;0.10;;;0.10;;
11263;SDS011;5689;48.798;9.070;2024-03-17T14:55:03;0.10;;;0.10;;
11263;SDS011;5689;48.798;9.070;2024-03-17T14:57:30;0.10;;;0.10;;
11263;SDS011;5689;48.798;9.070;2024-03-17T14:59:57;0.10;;;0.10;;
11263;SDS011;5689;48.798;9.070;2024-03-17T15:02:26;0.10;;;0.10;;
11263;SDS011;5689;48.798;9.070;2024-03-17T15:04:53;0.05;;;0.05;;
11263;SDS011;5689;48.798;9.070;2024-03-17T15:07:20;0.10;;;0.10;;
11263;SDS011;5689;48.798;9.070;2024-03-17T15:09:50;0.10;;;0.10;;